createdAt,value
2018-12-21T00:02:05.997Z,45.15
2018-12-21T00:04:35.164Z,39.55
2018-12-21T00:07:04.344Z,36.05
2018-12-21T00:09:33.491Z,42.73
2018-12-21T00:12:02.780Z,39.10
2018-12-21T00:14:31.953Z,37.13
2018-12-21T00:17:01.108Z,38.65
2018-12-21T00:19:30.254Z,41.02
2018-12-21T00:21:59.427Z,43.75
2018-12-21T00:24:28.605Z,41.60
2018-12-21T00:26:57.748Z,39.65
2018-12-21T00:29:26.836Z,42.03
2018-12-21T00:32:01.481Z,39.27
2018-12-21T00:34:36.072Z,37.15
2018-12-21T00:37:10.655Z,35.68
2018-12-21T00:39:45.128Z,35.58
2018-12-21T00:42:20.516Z,40.35
2018-12-21T00:44:51.697Z,34.73
2018-12-21T00:47:20.968Z,42.03
2018-12-21T00:49:50.090Z,34.90
2018-12-21T00:52:19.190Z,38.95
2018-12-21T00:54:48.391Z,46.05
2018-12-21T00:57:17.480Z,52.62
2018-12-21T00:59:46.628Z,42.30
2018-12-21T01:02:15.980Z,39.55
2018-12-21T01:04:45.088Z,38.45
2018-12-21T01:07:14.408Z,43.38
2018-12-21T01:09:43.784Z,39.42
2018-12-21T01:12:13.308Z,44.00
2018-12-21T01:14:42.572Z,36.25
2018-12-21T01:17:11.666Z,39.50
2018-12-21T01:19:40.962Z,47.62
2018-12-21T01:22:10.062Z,37.85
2018-12-21T01:24:39.284Z,42.23
2018-12-21T01:27:08.432Z,35.13
2018-12-21T01:29:37.567Z,34.18
2018-12-21T01:32:06.705Z,39.55
2018-12-21T01:34:35.857Z,41.23
2018-12-21T01:37:05.012Z,38.35
2018-12-21T01:39:34.198Z,35.85
2018-12-21T01:42:03.324Z,37.83
2018-12-21T01:44:32.480Z,42.45
2018-12-21T01:47:01.764Z,39.10
2018-12-21T01:49:30.916Z,36.55
2018-12-21T01:52:00.164Z,42.27
2018-12-21T01:54:29.329Z,33.00
2018-12-21T01:56:58.524Z,37.33
2018-12-21T01:59:27.661Z,35.60
2018-12-21T02:01:57.094Z,39.95
2018-12-21T02:04:26.342Z,35.23
2018-12-21T02:06:55.509Z,38.83
2018-12-21T02:09:24.695Z,33.63
2018-12-21T02:11:53.833Z,41.92
2018-12-21T02:14:23.081Z,37.23
2018-12-21T02:16:52.199Z,32.78
2018-12-21T02:19:21.527Z,37.42
2018-12-21T02:21:55.840Z,35.83
2018-12-21T02:24:21.823Z,37.08
2018-12-21T02:26:50.885Z,43.30
2018-12-21T02:29:20.172Z,31.57
2018-12-21T02:31:49.319Z,41.80
2018-12-21T02:34:18.423Z,36.40
2018-12-21T02:36:47.605Z,39.55
2018-12-21T02:39:16.843Z,32.55
2018-12-21T02:41:45.969Z,36.98
2018-12-21T02:44:15.125Z,36.85
2018-12-21T02:46:44.375Z,37.60
2018-12-21T02:49:13.501Z,37.23
2018-12-21T02:51:42.641Z,37.85
2018-12-21T02:54:11.777Z,32.95
2018-12-21T02:56:40.915Z,29.60
2018-12-21T02:59:10.082Z,35.80
2018-12-21T03:01:39.200Z,34.95
2018-12-21T03:04:08.332Z,31.07
2018-12-21T03:06:37.777Z,33.38
2018-12-21T03:09:09.861Z,37.73
2018-12-21T03:11:39.056Z,28.62
2018-12-21T03:14:08.233Z,32.05
2018-12-21T03:16:37.328Z,30.77
2018-12-21T03:19:06.417Z,33.67
2018-12-21T03:21:35.689Z,40.30
2018-12-21T03:24:04.861Z,32.73
2018-12-21T03:26:33.985Z,37.25
2018-12-21T03:29:03.085Z,34.55
2018-12-21T03:31:32.211Z,28.80
2018-12-21T03:34:01.351Z,34.10
2018-12-21T03:36:30.475Z,35.55
2018-12-21T03:38:59.631Z,32.80
2018-12-21T03:41:28.909Z,36.45
2018-12-21T03:43:58.039Z,32.17
2018-12-21T03:46:27.182Z,30.00
2018-12-21T03:48:56.333Z,26.70
2018-12-21T03:51:25.463Z,25.80
2018-12-21T03:53:54.680Z,38.78
2018-12-21T03:56:23.876Z,34.60
2018-12-21T03:58:53.001Z,32.40
2018-12-21T04:01:22.137Z,30.32
2018-12-21T04:03:51.284Z,32.58
2018-12-21T04:06:20.401Z,30.85
2018-12-21T04:08:50.757Z,30.17
2018-12-21T04:11:19.922Z,26.82
2018-12-21T04:13:49.106Z,28.32
2018-12-21T04:16:18.187Z,35.08
2018-12-21T04:18:47.348Z,28.32
2018-12-21T04:21:16.579Z,31.90
2018-12-21T04:23:45.695Z,35.25
2018-12-21T04:26:14.897Z,41.15
2018-12-21T04:28:44.117Z,29.27
2018-12-21T04:31:13.231Z,30.75
2018-12-21T04:33:42.381Z,28.17
2018-12-21T04:36:11.509Z,27.95
2018-12-21T04:38:40.709Z,29.07
2018-12-21T04:41:09.815Z,27.37
2018-12-21T04:43:38.967Z,30.12
2018-12-21T04:46:08.105Z,27.85
2018-12-21T04:48:37.267Z,29.63
2018-12-21T04:51:06.439Z,32.55
2018-12-21T04:53:35.561Z,29.18
2018-12-21T04:56:04.818Z,31.55
2018-12-21T04:58:33.989Z,34.55
2018-12-21T05:01:03.337Z,33.25
2018-12-21T05:03:32.423Z,23.87
2018-12-21T05:06:01.636Z,30.50
2018-12-21T05:08:30.750Z,31.75
2018-12-21T05:11:00.064Z,30.48
2018-12-21T05:13:29.210Z,28.98
2018-12-21T05:15:59.482Z,28.42
2018-12-21T05:18:28.631Z,26.68
2018-12-21T05:20:57.775Z,30.37
2018-12-21T05:23:26.918Z,28.95
2018-12-21T05:25:56.149Z,26.93
2018-12-21T05:28:25.270Z,26.37
2018-12-21T05:30:54.426Z,31.52
2018-12-21T05:33:23.570Z,23.67
2018-12-21T05:35:52.692Z,24.80
2018-12-21T05:38:21.807Z,27.80
2018-12-21T05:40:50.944Z,25.88
2018-12-21T05:43:20.077Z,24.92
2018-12-21T05:45:49.209Z,26.87
2018-12-21T05:48:18.391Z,26.00
2018-12-21T05:50:47.543Z,25.55
2018-12-21T05:53:16.838Z,26.57
2018-12-21T05:55:46.005Z,22.87
2018-12-21T05:58:15.159Z,27.50
2018-12-21T06:00:44.337Z,34.70
2018-12-21T06:03:13.467Z,19.40
2018-12-21T06:05:42.641Z,19.67
2018-12-21T06:08:11.774Z,26.40
2018-12-21T06:10:40.909Z,24.43
2018-12-21T06:13:10.150Z,24.55
2018-12-21T06:15:39.277Z,26.15
2018-12-21T06:18:08.603Z,23.80
2018-12-21T06:20:37.807Z,23.15
2018-12-21T06:23:09.533Z,28.17
2018-12-21T06:25:38.109Z,32.58
2018-12-21T06:28:07.249Z,25.77
2018-12-21T06:30:36.379Z,29.42
2018-12-21T06:33:05.552Z,26.55
2018-12-21T06:35:34.701Z,29.00
2018-12-21T06:38:03.843Z,27.62
2018-12-21T06:40:32.983Z,26.07
2018-12-21T06:43:02.159Z,28.65
2018-12-21T06:45:31.299Z,27.50
2018-12-21T06:48:00.452Z,26.65
2018-12-21T06:50:29.608Z,24.63
2018-12-21T06:52:58.839Z,23.40
2018-12-21T06:55:27.963Z,26.87
2018-12-21T06:57:57.177Z,23.05
2018-12-21T07:00:26.383Z,24.10
2018-12-21T07:02:55.473Z,25.90
2018-12-21T07:05:24.683Z,27.40
2018-12-21T07:07:53.873Z,24.92
2018-12-21T07:10:23.062Z,26.93
2018-12-21T07:12:52.229Z,23.27
2018-12-21T07:15:21.607Z,23.83
2018-12-21T07:17:50.827Z,25.82
2018-12-21T07:20:20.059Z,30.65
2018-12-21T07:22:49.157Z,21.70
2018-12-21T07:25:18.320Z,22.62
2018-12-21T07:27:47.445Z,21.62
2018-12-21T07:30:16.592Z,24.65
2018-12-21T07:32:45.825Z,23.70
2018-12-21T07:35:16.799Z,24.00
2018-12-21T07:37:46.187Z,25.20
2018-12-21T07:40:15.589Z,26.87
2018-12-21T07:42:44.775Z,21.30
2018-12-21T07:45:13.939Z,25.57
2018-12-21T07:47:43.173Z,29.35
2018-12-21T07:50:12.380Z,23.42
2018-12-21T07:52:41.605Z,22.50
2018-12-21T07:55:11.253Z,26.77
2018-12-21T07:57:40.533Z,24.60
2018-12-21T08:00:11.758Z,25.45
2018-12-21T08:02:40.929Z,28.62
2018-12-21T08:05:10.118Z,24.92
2018-12-21T08:07:39.415Z,23.27
2018-12-21T08:10:13.251Z,22.60
2018-12-21T08:12:42.436Z,21.25
2018-12-21T08:15:11.823Z,22.62
2018-12-21T08:17:41.202Z,18.73
2018-12-21T08:20:10.980Z,26.33
2018-12-21T08:22:40.282Z,25.10
2018-12-21T08:25:09.580Z,20.48
2018-12-21T08:27:38.732Z,22.77
2018-12-21T08:30:09.646Z,23.27
2018-12-21T08:32:39.192Z,27.22
2018-12-21T08:35:08.490Z,20.02
2018-12-21T08:37:37.832Z,21.55
2018-12-21T08:40:09.360Z,21.23
2018-12-21T08:42:38.602Z,22.90
2018-12-21T08:45:09.888Z,23.50
2018-12-21T08:47:39.202Z,17.27
2018-12-21T08:50:10.588Z,26.85
2018-12-21T08:52:40.802Z,23.50
2018-12-21T08:55:11.892Z,21.40
2018-12-21T08:57:41.370Z,21.23
2018-12-21T09:00:12.800Z,24.27
2018-12-21T09:02:42.004Z,21.85
2018-12-21T09:05:11.098Z,23.98
2018-12-21T09:07:40.276Z,22.13
2018-12-21T09:10:10.703Z,21.93
2018-12-21T09:12:40.001Z,24.23
2018-12-21T09:15:13.233Z,19.57
2018-12-21T09:17:42.407Z,23.38
2018-12-21T09:20:11.961Z,19.32
2018-12-21T09:22:41.221Z,20.90
2018-12-21T09:25:10.446Z,19.02
2018-12-21T09:27:39.648Z,21.33
2018-12-21T09:30:12.645Z,23.02
2018-12-21T09:32:41.962Z,19.55
2018-12-21T09:35:11.140Z,18.50
2018-12-21T09:37:41.640Z,20.08
2018-12-21T09:40:12.402Z,18.77
2018-12-21T09:42:41.588Z,20.05
2018-12-21T09:45:10.899Z,18.35
2018-12-21T09:47:40.158Z,19.37
2018-12-21T09:50:10.773Z,19.40
2018-12-21T09:52:40.132Z,19.90
2018-12-21T09:55:09.402Z,20.05
2018-12-21T09:57:38.734Z,18.35
2018-12-21T10:00:10.957Z,21.17
2018-12-21T10:02:41.063Z,20.90
2018-12-21T10:05:14.495Z,22.02
2018-12-21T10:07:44.045Z,16.20
2018-12-21T10:10:13.212Z,16.75
2018-12-21T10:12:42.400Z,21.55
2018-12-21T10:15:11.786Z,22.48
2018-12-21T10:17:40.941Z,21.17
2018-12-21T10:20:10.260Z,16.93
2018-12-21T10:22:39.411Z,22.07
2018-12-21T10:25:10.580Z,19.82
2018-12-21T10:27:39.748Z,21.50
2018-12-21T10:30:10.659Z,20.20
2018-12-21T10:32:39.781Z,13.60
2018-12-21T10:35:09.002Z,20.70
2018-12-21T10:37:38.167Z,19.55
2018-12-21T10:40:08.417Z,25.68
2018-12-21T10:42:37.551Z,16.12
2018-12-21T10:45:07.219Z,22.27
2018-12-21T10:47:36.375Z,16.80
2018-12-21T10:50:09.853Z,18.80
2018-12-21T10:52:39.187Z,16.70
2018-12-21T10:55:08.650Z,18.45
2018-12-21T10:57:37.843Z,18.62
2018-12-21T11:00:10.144Z,17.92
2018-12-21T11:02:39.325Z,19.02
2018-12-21T11:05:09.382Z,21.23
2018-12-21T11:07:38.541Z,18.35
2018-12-21T11:10:10.553Z,17.45
2018-12-21T11:12:40.007Z,20.43
2018-12-21T11:15:09.390Z,18.82
2018-12-21T11:17:38.552Z,20.77
2018-12-21T11:20:08.403Z,23.60
2018-12-21T11:22:37.576Z,21.68
2018-12-21T11:25:09.320Z,20.25
2018-12-21T11:27:38.534Z,18.98
2018-12-21T11:30:08.681Z,17.92
2018-12-21T11:32:37.857Z,16.05
2018-12-21T11:35:07.132Z,18.50
2018-12-21T11:37:36.371Z,14.23
2018-12-21T11:40:05.907Z,24.35
2018-12-21T11:42:35.221Z,19.10
2018-12-21T11:45:05.943Z,21.68
2018-12-21T11:47:35.276Z,17.73
2018-12-21T11:50:05.450Z,18.42
2018-12-21T11:52:34.834Z,22.17
2018-12-21T11:55:04.221Z,20.88
2018-12-21T11:57:33.403Z,18.32
2018-12-21T12:00:02.627Z,16.67
2018-12-21T12:02:31.764Z,24.43
2018-12-21T12:05:03.067Z,22.85
2018-12-21T12:07:32.164Z,21.93
2018-12-21T12:10:01.340Z,18.20
2018-12-21T12:12:30.493Z,20.85
2018-12-21T12:14:59.727Z,17.45
2018-12-21T12:17:28.905Z,21.23
2018-12-21T12:19:57.996Z,20.52
2018-12-21T12:22:27.146Z,21.62
2018-12-21T12:24:56.343Z,22.40
2018-12-21T12:27:25.502Z,22.35
2018-12-21T12:29:54.701Z,22.27
2018-12-21T12:32:23.911Z,23.25
2018-12-21T12:34:53.213Z,23.22
2018-12-21T12:37:22.317Z,19.98
2018-12-21T12:39:51.560Z,18.40
2018-12-21T12:42:20.700Z,21.35
2018-12-21T12:44:49.863Z,19.80
2018-12-21T12:47:19.052Z,20.55
2018-12-21T12:49:48.190Z,23.87
2018-12-21T12:52:17.379Z,23.35
2018-12-21T12:54:46.657Z,22.25
2018-12-21T12:57:15.824Z,18.20
2018-12-21T12:59:45.100Z,23.00
2018-12-21T13:02:14.503Z,25.37
2018-12-21T13:04:43.689Z,22.55
2018-12-21T13:07:12.815Z,17.57
2018-12-21T13:09:43.161Z,18.23
2018-12-21T13:12:12.315Z,20.88
2018-12-21T13:14:41.419Z,19.00
2018-12-21T13:17:10.614Z,22.15
2018-12-21T13:19:39.756Z,23.52
2018-12-21T13:22:08.926Z,23.62
2018-12-21T13:24:38.094Z,23.65
2018-12-21T13:27:07.428Z,25.90
2018-12-21T13:29:36.588Z,20.72
2018-12-21T13:32:05.808Z,19.00
2018-12-21T13:34:34.984Z,25.37
2018-12-21T13:37:04.322Z,19.82
2018-12-21T13:39:33.555Z,24.50
2018-12-21T13:42:02.936Z,22.98
2018-12-21T13:44:32.064Z,23.35
2018-12-21T13:47:01.184Z,23.07
2018-12-21T13:49:30.385Z,26.27
2018-12-21T13:51:59.587Z,25.15
2018-12-21T13:54:28.702Z,23.20
2018-12-21T13:56:57.905Z,27.75
2018-12-21T13:59:27.148Z,19.42
2018-12-21T14:01:56.440Z,27.20
2018-12-21T14:04:25.994Z,22.65
2018-12-21T14:06:55.146Z,25.62
2018-12-21T14:09:26.418Z,26.93
2018-12-21T14:11:55.536Z,22.52
2018-12-21T14:14:24.659Z,22.90
2018-12-21T14:16:53.809Z,21.65
2018-12-21T14:19:22.976Z,20.70
2018-12-21T14:21:52.156Z,21.90
2018-12-21T14:24:21.544Z,23.42
2018-12-21T14:26:50.820Z,21.07
2018-12-21T14:29:19.987Z,23.27
2018-12-21T14:31:49.085Z,22.02
2018-12-21T14:34:18.289Z,24.02
2018-12-21T14:36:47.458Z,30.08
2018-12-21T14:39:16.623Z,23.47
2018-12-21T14:41:45.816Z,21.30
2018-12-21T14:44:15.003Z,26.23
2018-12-21T14:46:44.173Z,24.67
2018-12-21T14:49:13.287Z,25.97
2018-12-21T14:51:42.492Z,26.77
2018-12-21T14:54:11.670Z,28.10
2018-12-21T14:56:40.879Z,24.02
2018-12-21T15:03:47.484Z,21.07
2018-12-21T15:06:16.661Z,33.40
2018-12-21T15:08:45.804Z,29.70
2018-12-21T15:11:14.956Z,29.80
2018-12-21T15:13:44.096Z,25.68
2018-12-21T15:16:13.356Z,29.10
2018-12-21T15:18:42.500Z,32.05
2018-12-21T15:21:11.710Z,25.30
2018-12-21T15:23:40.862Z,23.65
2018-12-21T15:26:10.028Z,28.12
2018-12-21T15:28:39.168Z,26.05
2018-12-21T15:31:08.304Z,27.37
2018-12-21T15:33:37.684Z,25.17
2018-12-21T15:36:06.908Z,26.15
2018-12-21T15:38:36.107Z,29.20
2018-12-21T15:41:05.263Z,30.95
2018-12-21T15:43:34.430Z,31.25
2018-12-21T15:46:03.814Z,31.17
2018-12-21T15:48:32.994Z,30.27
2018-12-21T15:51:02.133Z,30.15
2018-12-21T15:53:31.294Z,27.00
2018-12-21T15:56:00.441Z,32.67
2018-12-21T15:58:30.524Z,29.98
2018-12-21T16:03:43.249Z,30.65
2018-12-21T16:06:12.605Z,25.02
2018-12-21T16:08:41.895Z,25.32
2018-12-21T16:11:11.061Z,23.30
2018-12-21T16:13:40.241Z,24.27
2018-12-21T16:16:09.393Z,27.10
2018-12-21T16:18:38.572Z,28.12
2018-12-21T16:21:07.756Z,27.15
2018-12-21T16:23:36.914Z,25.80
2018-12-21T16:26:06.075Z,27.98
2018-12-21T16:28:35.222Z,25.90
2018-12-21T16:31:04.499Z,32.33
2018-12-21T16:33:33.678Z,30.77
2018-12-21T16:36:02.788Z,26.87
2018-12-21T16:38:31.996Z,22.80
2018-12-21T16:41:01.186Z,19.40
2018-12-21T16:43:30.420Z,24.45
2018-12-21T16:45:59.580Z,24.82
2018-12-21T16:48:28.746Z,27.02
2018-12-21T16:50:57.921Z,24.52
2018-12-21T16:53:27.050Z,26.05
2018-12-21T16:55:56.270Z,25.12
2018-12-21T16:58:25.424Z,24.90
2018-12-21T17:00:54.583Z,27.48
2018-12-21T17:03:23.758Z,31.02
2018-12-21T17:05:52.938Z,25.60
2018-12-21T17:08:22.258Z,29.63
2018-12-21T17:10:51.396Z,27.58
2018-12-21T17:13:20.579Z,27.15
2018-12-21T17:15:49.752Z,26.95
2018-12-21T17:18:19.703Z,23.65
2018-12-21T17:20:48.910Z,24.43
2018-12-21T17:23:18.069Z,27.20
2018-12-21T17:25:47.232Z,31.30
2018-12-21T17:28:16.385Z,28.35
2018-12-21T17:30:45.553Z,23.60
2018-12-21T17:33:14.929Z,26.45
2018-12-21T17:35:44.287Z,33.38
2018-12-21T17:38:13.686Z,31.02
2018-12-21T17:40:42.933Z,30.37
2018-12-21T17:43:12.253Z,27.32
2018-12-21T17:45:41.486Z,31.15
2018-12-21T17:48:10.744Z,34.10
2018-12-21T17:50:39.942Z,28.80
2018-12-21T17:53:09.127Z,33.55
2018-12-21T17:55:38.300Z,28.80
2018-12-21T17:58:08.225Z,29.05
2018-12-21T18:00:38.129Z,36.50
2018-12-21T18:03:10.004Z,29.15
2018-12-21T18:05:39.140Z,34.30
2018-12-21T18:08:08.379Z,27.10
2018-12-21T18:10:37.530Z,30.62
2018-12-21T18:13:06.638Z,27.65
2018-12-21T18:15:35.725Z,30.85
2018-12-21T18:18:05.029Z,27.73
2018-12-21T18:20:34.227Z,28.23
2018-12-21T18:23:05.270Z,32.53
2018-12-21T18:25:34.415Z,30.75
2018-12-21T18:28:10.752Z,33.58
2018-12-21T18:30:44.327Z,28.52
2018-12-21T18:33:14.752Z,36.30
2018-12-21T18:35:43.949Z,38.58
2018-12-21T18:38:16.663Z,33.20
2018-12-21T18:40:45.911Z,38.05
2018-12-21T18:43:15.167Z,28.05
2018-12-21T18:45:44.429Z,29.45
2018-12-21T18:48:13.553Z,31.45
2018-12-21T18:50:42.734Z,32.33
2018-12-21T18:53:11.937Z,30.85
2018-12-21T18:55:41.537Z,31.30
2018-12-21T18:58:10.663Z,30.08
2018-12-21T19:00:39.851Z,32.58
2018-12-21T19:03:09.053Z,38.73
2018-12-21T19:05:38.193Z,33.00
2018-12-21T19:08:07.339Z,31.10
2018-12-21T19:10:36.545Z,27.42
2018-12-21T19:13:05.713Z,25.30
2018-12-21T19:15:34.838Z,27.77
2018-12-21T19:18:04.193Z,27.20
2018-12-21T19:20:33.347Z,26.35
2018-12-21T19:23:02.578Z,29.75
2018-12-21T19:25:31.759Z,28.70
2018-12-21T19:28:00.920Z,29.50
2018-12-21T19:30:30.033Z,31.40
2018-12-21T19:32:59.206Z,29.67
2018-12-21T19:35:30.011Z,31.95
2018-12-21T19:37:59.775Z,29.57
2018-12-21T19:40:29.143Z,29.52
2018-12-21T19:42:58.308Z,28.10
2018-12-21T19:45:27.517Z,25.05
2018-12-21T19:47:56.658Z,31.57
2018-12-21T19:50:25.888Z,28.65
2018-12-21T19:52:56.033Z,26.70
2018-12-21T19:55:38.447Z,24.67
2018-12-21T19:58:07.585Z,26.52
2018-12-21T20:00:36.749Z,25.60
2018-12-21T20:03:05.896Z,25.95
2018-12-21T20:05:35.069Z,28.77
2018-12-21T20:08:04.254Z,30.75
2018-12-21T20:10:33.476Z,27.60
2018-12-21T20:13:02.660Z,29.12
2018-12-21T20:15:31.887Z,27.15
2018-12-21T20:18:01.048Z,22.13
2018-12-21T20:20:30.202Z,38.23
2018-12-21T20:22:59.368Z,31.00
2018-12-21T20:25:28.635Z,30.12
2018-12-21T20:27:57.804Z,25.55
2018-12-21T20:30:27.128Z,27.25
2018-12-21T20:32:56.530Z,23.60
2018-12-21T20:35:25.632Z,25.02
2018-12-21T20:37:54.784Z,28.85
2018-12-21T20:40:24.044Z,23.45
2018-12-21T20:42:53.208Z,27.02
2018-12-21T20:45:22.622Z,25.48
2018-12-21T20:47:51.836Z,24.47
2018-12-21T20:50:20.953Z,29.05
2018-12-21T20:52:50.119Z,26.52
2018-12-21T20:55:19.461Z,25.85
2018-12-21T20:57:51.053Z,27.93
2018-12-21T21:00:20.379Z,26.40
2018-12-21T21:02:49.784Z,31.45
2018-12-21T21:05:19.178Z,31.62
2018-12-21T21:07:48.375Z,30.45
2018-12-21T21:10:17.640Z,27.02
2018-12-21T21:12:47.919Z,26.45
2018-12-21T21:15:17.027Z,31.07
2018-12-21T21:17:46.147Z,24.98
2018-12-21T21:20:15.991Z,31.45
2018-12-21T21:22:45.135Z,27.22
2018-12-21T21:25:14.307Z,31.60
2018-12-21T21:27:43.400Z,29.55
2018-12-21T21:30:15.516Z,28.30
2018-12-21T21:32:44.657Z,30.20
2018-12-21T21:35:13.792Z,29.63
2018-12-21T21:37:42.912Z,29.15
2018-12-21T21:40:15.545Z,28.02
2018-12-21T21:42:45.233Z,29.10
2018-12-21T21:45:14.409Z,27.90
2018-12-21T21:47:43.738Z,25.62
2018-12-21T21:50:13.101Z,26.00
2018-12-21T21:52:42.255Z,28.80
2018-12-21T21:55:11.553Z,29.32
2018-12-21T21:57:41.714Z,33.45
2018-12-21T22:00:12.989Z,23.02
2018-12-21T22:02:42.789Z,28.17
2018-12-21T22:05:11.988Z,30.27
2018-12-21T22:07:41.936Z,24.07
2018-12-21T22:10:11.640Z,33.65
2018-12-21T22:12:40.899Z,24.87
2018-12-21T22:15:11.205Z,26.10
2018-12-21T22:17:40.335Z,25.12
2018-12-21T22:20:11.164Z,20.08
2018-12-21T22:22:40.344Z,28.57
2018-12-21T22:25:09.493Z,25.57
2018-12-21T22:27:38.705Z,29.05
2018-12-21T22:30:10.289Z,28.60
2018-12-21T22:32:39.459Z,23.80
2018-12-21T22:35:08.873Z,25.37
2018-12-21T22:37:38.139Z,22.95
2018-12-21T22:40:08.041Z,26.37
2018-12-21T22:42:37.155Z,30.48
2018-12-21T22:45:07.589Z,23.62
2018-12-21T22:47:36.841Z,27.60
2018-12-21T22:50:08.878Z,23.10
2018-12-21T22:52:39.298Z,27.70
2018-12-21T22:55:09.256Z,26.50
2018-12-21T22:57:38.429Z,18.48
2018-12-21T23:00:18.316Z,25.75
2018-12-21T23:02:47.494Z,22.45
2018-12-21T23:05:16.680Z,23.52
2018-12-21T23:07:45.838Z,27.80
2018-12-21T23:10:14.988Z,28.38
2018-12-21T23:12:44.169Z,25.50
2018-12-21T23:15:13.368Z,26.70
2018-12-21T23:17:42.542Z,24.15
2018-12-21T23:20:11.710Z,28.62
2018-12-21T23:22:40.888Z,23.70
2018-12-21T23:25:10.040Z,30.27
2018-12-21T23:27:39.124Z,28.87
2018-12-21T23:30:09.568Z,25.85
2018-12-21T23:32:38.782Z,24.20
2018-12-21T23:35:08.434Z,27.07
2018-12-21T23:37:37.626Z,26.77
2018-12-21T23:40:08.139Z,27.95
2018-12-21T23:42:37.283Z,22.60
2018-12-21T23:45:07.190Z,24.63
2018-12-21T23:47:36.370Z,23.92
2018-12-21T23:50:06.713Z,24.57
2018-12-21T23:52:35.960Z,25.17
2018-12-21T23:55:05.649Z,27.25
2018-12-21T23:57:34.815Z,19.87
